Time;durP1;ratioP1;P1;durP2;ratioP2;P2;SDS_P1;SDS_P2;PMS_P1;PMS_P2;Temp;Humidity;BMP_temperature;BMP_pressure;BME280_temperature;BME280_humidity;BME280_pressure;Samples;Min_cycle;Max_cycle;Signal;HPM_P1;HPM_P2
2024/04/16 00:01:28;;;;;;;0.00;0.00;;;;;;;;;;5493245;26;20314;-83
2024/04/16 00:03:54;;;;;;;0.10;0.00;;;;;;;;;;5492579;26;20413;-83
2024/04/16 00:06:19;;;;;;;0.08;0.00;;;;;;;;;;5493325;26;20388;-84
2024/04/16 00:08:48;;;;;;;0.80;0.00;;;;;;;;;;5492802;26;20326;-84
2024/04/16 00:11:14;;;;;;;0.90;0.00;;;;;;;;;;5492977;26;20432;-84
2024/04/16 00:13:40;;;;;;;0.00;0.00;;;;;;;;;;5494028;26;20785;-83
2024/04/16 00:16:06;;;;;;;0.60;0.00;;;;;;;;;;5491836;26;20318;-86
2024/04/16 00:18:32;;;;;;;0.20;0.05;;;;;;;;;;5492996;26;20444;-83
2024/04/16 00:20:58;;;;;;;0.50;0.00;;;;;;;;;;5494411;26;20326;-86
2024/04/16 00:23:24;;;;;;;0.22;0.10;;;;;;;;;;5492800;26;20310;-85
2024/04/16 00:25:50;;;;;;;0.00;0.00;;;;;;;;;;5493609;26;20370;-85
2024/04/16 00:28:16;;;;;;;0.20;0.10;;;;;;;;;;5494067;26;20684;-85
2024/04/16 00:30:42;;;;;;;0.70;0.10;;;;;;;;;;5495143;26;20315;-83
2024/04/16 00:33:08;;;;;;;0.00;0.00;;;;;;;;;;5494854;26;20412;-85
2024/04/16 00:35:34;;;;;;;0.00;0.00;;;;;;;;;;5495875;26;20424;-85
2024/04/16 00:38:00;;;;;;;0.20;0.00;;;;;;;;;;5495658;26;20330;-85
2024/04/16 00:40:26;;;;;;;0.10;0.10;;;;;;;;;;5496343;26;20353;-85
2024/04/16 00:42:52;;;;;;;0.90;0.00;;;;;;;;;;5495537;26;20819;-85
2024/04/16 00:45:18;;;;;;;0.08;0.08;;;;;;;;;;5495480;26;20322;-85
2024/04/16 00:47:45;;;;;;;0.05;0.05;;;;;;;;;;5489889;26;20357;-85
2024/04/16 00:50:12;;;;;;;0.50;0.00;;;;;;;;;;5488443;26;20307;-85
2024/04/16 00:52:38;;;;;;;0.10;0.10;;;;;;;;;;5496953;26;20725;-85
2024/04/16 00:55:05;;;;;;;0.20;0.10;;;;;;;;;;5495692;26;20346;-85
2024/04/16 00:57:31;;;;;;;0.17;0.08;;;;;;;;;;5496998;26;20347;-85
2024/04/16 00:59:58;;;;;;;0.10;0.10;;;;;;;;;;5494835;26;20729;-85
2024/04/16 01:02:24;;;;;;;0.70;0.10;;;;;;;;;;5494268;26;20311;-84
2024/04/16 01:04:50;;;;;;;0.63;0.17;;;;;;;;;;5494710;26;20351;-84
2024/04/16 01:07:17;;;;;;;0.57;0.25;;;;;;;;;;5493783;26;20350;-84
2024/04/16 01:09:43;;;;;;;0.90;0.30;;;;;;;;;;5494819;26;20370;-85
2024/04/16 01:12:09;;;;;;;0.30;0.30;;;;;;;;;;5494714;26;20326;-84
2024/04/16 01:14:35;;;;;;;0.77;0.30;;;;;;;;;;5495110;26;20326;-84
2024/04/16 01:17:01;;;;;;;0.90;0.20;;;;;;;;;;5496838;26;20826;-84
2024/04/16 01:19:27;;;;;;;0.43;0.30;;;;;;;;;;5495965;26;20354;-84
2024/04/16 01:21:53;;;;;;;0.30;0.30;;;;;;;;;;5495546;26;20359;-84
2024/04/16 01:24:20;;;;;;;0.60;0.40;;;;;;;;;;5494738;26;20330;-84
2024/04/16 01:26:47;;;;;;;0.40;0.25;;;;;;;;;;5494898;26;20425;-84
2024/04/16 01:29:13;;;;;;;0.50;0.20;;;;;;;;;;5499131;26;20391;-84
2024/04/16 01:31:38;;;;;;;0.20;0.20;;;;;;;;;;5490770;26;20334;-84
2024/04/16 01:34:05;;;;;;;0.70;0.20;;;;;;;;;;5493355;26;20334;-84
2024/04/16 01:36:30;;;;;;;0.30;0.25;;;;;;;;;;5491410;26;20418;-84
2024/04/16 01:38:56;;;;;;;0.90;0.40;;;;;;;;;;5490736;26;20330;-85
2024/04/16 01:41:22;;;;;;;0.93;0.30;;;;;;;;;;5493679;26;20319;-84
2024/04/16 01:43:48;;;;;;;0.73;0.20;;;;;;;;;;5493406;26;20439;-84
2024/04/16 01:46:14;;;;;;;1.42;0.35;;;;;;;;;;5493850;26;20314;-84
2024/04/16 01:48:40;;;;;;;0.25;0.20;;;;;;;;;;5477262;26;20362;-84
2024/04/16 01:51:06;;;;;;;0.60;0.25;;;;;;;;;;5494028;26;20326;-84
2024/04/16 01:53:32;;;;;;;0.28;0.20;;;;;;;;;;5494011;26;20354;-84
2024/04/16 01:56:01;;;;;;;1.45;0.30;;;;;;;;;;5493404;26;20366;-84
2024/04/16 01:58:27;;;;;;;0.97;0.40;;;;;;;;;;5505905;26;20331;-84
2024/04/16 02:01:00;;;;;;;1.73;0.50;;;;;;;;;;5492579;26;20359;-84
2024/04/16 02:03:26;;;;;;;1.10;0.40;;;;;;;;;;5492619;26;20433;-83
2024/04/16 02:05:53;;;;;;;0.50;0.30;;;;;;;;;;5491687;26;20653;-83
2024/04/16 02:08:19;;;;;;;1.95;0.40;;;;;;;;;;5491338;26;21075;-84
2024/04/16 02:10:52;;;;;;;1.30;0.50;;;;;;;;;;5491838;26;20322;-84
2024/04/16 02:13:18;;;;;;;0.70;0.20;;;;;;;;;;5491856;26;20958;-84
2024/04/16 02:15:44;;;;;;;1.05;0.45;;;;;;;;;;5492412;26;20917;-84
2024/04/16 02:18:10;;;;;;;1.38;0.40;;;;;;;;;;5492609;26;20323;-84
2024/04/16 02:20:36;;;;;;;1.90;0.30;;;;;;;;;;5495176;26;20831;-84
2024/04/16 02:23:02;;;;;;;1.30;0.40;;;;;;;;;;5494695;26;20354;-85
2024/04/16 02:25:28;;;;;;;0.82;0.40;;;;;;;;;;5496058;26;20330;-85
2024/04/16 02:27:54;;;;;;;1.13;0.47;;;;;;;;;;5497153;26;20338;-84
2024/04/16 02:30:20;;;;;;;0.30;0.30;;;;;;;;;;5472328;26;20322;-84
2024/04/16 02:32:46;;;;;;;1.02;0.35;;;;;;;;;;5497364;26;20334;-84
2024/04/16 02:35:12;;;;;;;0.70;0.20;;;;;;;;;;5495183;26;20643;-84
2024/04/16 02:37:38;;;;;;;1.00;0.30;;;;;;;;;;5494881;26;20369;-84
2024/04/16 02:40:04;;;;;;;0.85;0.55;;;;;;;;;;5493137;26;20315;-84
2024/04/16 02:42:30;;;;;;;0.90;0.55;;;;;;;;;;5493882;26;20330;-84
2024/04/16 02:44:56;;;;;;;1.08;0.60;;;;;;;;;;5493424;26;20420;-84
2024/04/16 02:47:22;;;;;;;0.65;0.40;;;;;;;;;;5492053;26;20826;-84
2024/04/16 02:49:48;;;;;;;1.25;0.50;;;;;;;;;;5493932;26;20326;-84
2024/04/16 02:52:14;;;;;;;1.13;0.38;;;;;;;;;;5496690;26;20354;-85
2024/04/16 02:54:40;;;;;;;1.50;0.90;;;;;;;;;;5497478;26;20390;-84
2024/04/16 02:57:06;;;;;;;1.50;1.10;;;;;;;;;;5497661;26;20693;-85
2024/04/16 02:59:32;;;;;;;1.83;1.02;;;;;;;;;;5490476;26;20319;-84
2024/04/16 03:01:58;;;;;;;1.55;0.70;;;;;;;;;;5495815;26;20314;-85
2024/04/16 03:04:24;;;;;;;2.47;0.90;;;;;;;;;;5493610;26;20342;-84
2024/04/16 03:06:50;;;;;;;3.28;0.63;;;;;;;;;;5492398;26;20327;-85
2024/04/16 03:09:16;;;;;;;0.95;0.50;;;;;;;;;;5493102;26;20362;-85
2024/04/16 03:11:42;;;;;;;0.45;0.30;;;;;;;;;;5492488;26;20748;-84
2024/04/16 03:14:08;;;;;;;0.80;0.40;;;;;;;;;;5491564;26;20428;-84
2024/04/16 03:16:34;;;;;;;0.77;0.45;;;;;;;;;;5492603;26;20671;-84
2024/04/16 03:19:00;;;;;;;1.05;0.60;;;;;;;;;;5459245;26;20351;-84
2024/04/16 03:21:26;;;;;;;0.67;0.60;;;;;;;;;;5492371;26;20315;-84
2024/04/16 03:23:52;;;;;;;1.10;0.60;;;;;;;;;;5493324;26;20823;-84
2024/04/16 03:26:18;;;;;;;0.90;0.63;;;;;;;;;;5491797;26;20330;-84
2024/04/16 03:28:44;;;;;;;0.40;0.30;;;;;;;;;;5497199;26;20318;-84
2024/04/16 03:31:10;;;;;;;1.10;0.50;;;;;;;;;;5491714;26;20338;-84
2024/04/16 03:33:36;;;;;;;0.85;0.30;;;;;;;;;;5491418;26;20310;-84
2024/04/16 03:36:02;;;;;;;0.50;0.25;;;;;;;;;;5492362;26;20311;-84
2024/04/16 03:38:29;;;;;;;0.47;0.20;;;;;;;;;;5491718;26;20823;-84
2024/04/16 03:41:00;;;;;;;0.38;0.30;;;;;;;;;;5491837;26;20314;-84
2024/04/16 03:43:27;;;;;;;0.35;0.30;;;;;;;;;;5468051;26;20366;-84
2024/04/16 03:45:53;;;;;;;0.60;0.40;;;;;;;;;;5494887;26;20314;-84
2024/04/16 03:48:20;;;;;;;0.80;0.52;;;;;;;;;;5492309;26;20326;-84
2024/04/16 03:50:46;;;;;;;1.23;0.50;;;;;;;;;;5491604;26;20365;-84
2024/04/16 03:53:12;;;;;;;1.05;0.70;;;;;;;;;;5491557;26;20342;-84
2024/04/16 03:55:38;;;;;;;1.20;0.90;;;;;;;;;;5498430;26;20471;-85
2024/04/16 03:58:04;;;;;;;1.42;0.80;;;;;;;;;;5499040;26;20367;-84
2024/04/16 04:03:16;;;;;;;1.23;0.80;;;;;;;;;;5495488;26;20350;-84
2024/04/16 04:05:46;;;;;;;1.13;0.90;;;;;;;;;;5496454;26;20865;-85
2024/04/16 04:08:12;;;;;;;3.53;1.00;;;;;;;;;;5496497;26;20370;-84
2024/04/16 04:10:38;;;;;;;2.60;1.00;;;;;;;;;;5494926;26;20469;-85
2024/04/16 04:13:04;;;;;;;1.83;1.13;;;;;;;;;;5494175;26;20326;-84
2024/04/16 04:15:31;;;;;;;1.48;1.10;;;;;;;;;;5493961;26;20382;-84
2024/04/16 04:17:57;;;;;;;1.75;1.00;;;;;;;;;;5493646;26;20425;-84
2024/04/16 04:20:23;;;;;;;2.72;0.98;;;;;;;;;;5498001;26;20323;-85
2024/04/16 04:22:49;;;;;;;2.00;1.00;;;;;;;;;;5498025;26;20338;-85
2024/04/16 04:25:15;;;;;;;1.20;0.70;;;;;;;;;;5498528;26;20330;-84
2024/04/16 04:27:42;;;;;;;2.00;1.10;;;;;;;;;;5498495;26;20886;-85
2024/04/16 04:30:08;;;;;;;1.80;1.20;;;;;;;;;;5497476;26;20350;-84
2024/04/16 04:32:34;;;;;;;1.80;1.00;;;;;;;;;;5497975;26;20334;-84
2024/04/16 04:35:00;;;;;;;2.63;1.02;;;;;;;;;;5498006;26;20711;-84
2024/04/16 04:37:26;;;;;;;1.73;0.85;;;;;;;;;;5498393;26;20806;-84
2024/04/16 04:39:52;;;;;;;1.92;1.00;;;;;;;;;;5498354;26;20326;-84
2024/04/16 04:42:18;;;;;;;2.63;0.95;;;;;;;;;;5498068;26;20330;-84
2024/04/16 04:44:44;;;;;;;2.97;1.30;;;;;;;;;;5499412;26;20314;-85
2024/04/16 04:47:10;;;;;;;2.40;1.00;;;;;;;;;;5499276;26;20368;-84
2024/04/16 04:49:36;;;;;;;2.13;1.13;;;;;;;;;;5499622;26;20330;-84
2024/04/16 04:52:02;;;;;;;2.72;1.30;;;;;;;;;;5499064;26;20350;-84
2024/04/16 04:54:28;;;;;;;2.50;1.30;;;;;;;;;;5499010;26;20326;-84
2024/04/16 04:56:54;;;;;;;4.43;1.50;;;;;;;;;;5501192;26;20977;-84
2024/04/16 04:59:20;;;;;;;3.00;1.20;;;;;;;;;;5500392;26;20330;-85
2024/04/16 05:01:46;;;;;;;6.50;1.92;;;;;;;;;;5500598;26;20318;-85
2024/04/16 05:04:12;;;;;;;3.55;1.85;;;;;;;;;;5501343;26;20358;-85
2024/04/16 05:06:38;;;;;;;4.50;2.10;;;;;;;;;;5500383;26;20382;-84
2024/04/16 05:09:05;;;;;;;3.67;1.80;;;;;;;;;;5500388;26;20405;-85
2024/04/16 05:11:34;;;;;;;2.95;1.65;;;;;;;;;;5498716;26;20317;-84
2024/04/16 05:14:00;;;;;;;3.40;1.95;;;;;;;;;;5499602;26;20322;-84
2024/04/16 05:16:26;;;;;;;3.13;1.88;;;;;;;;;;5499496;26;20359;-84
2024/04/16 05:18:52;;;;;;;6.22;2.47;;;;;;;;;;5499384;26;20330;-85
2024/04/16 05:21:18;;;;;;;3.95;2.22;;;;;;;;;;5499916;26;20804;-85
2024/04/16 05:23:48;;;;;;;2.88;2.05;;;;;;;;;;5500784;26;20377;-85
2024/04/16 05:26:14;;;;;;;3.40;1.80;;;;;;;;;;5498772;26;20377;-85
2024/04/16 05:28:40;;;;;;;2.83;1.90;;;;;;;;;;5496033;26;20393;-84
2024/04/16 05:31:06;;;;;;;3.30;1.77;;;;;;;;;;5498353;26;20795;-85
2024/04/16 05:33:32;;;;;;;2.97;1.83;;;;;;;;;;5498561;26;20350;-85
2024/04/16 05:35:58;;;;;;;2.92;1.50;;;;;;;;;;5498765;26;20322;-85
2024/04/16 05:38:24;;;;;;;4.80;1.88;;;;;;;;;;5498569;26;20381;-85
2024/04/16 05:40:50;;;;;;;3.40;1.98;;;;;;;;;;5497913;26;20351;-85
2024/04/16 05:43:16;;;;;;;2.63;1.65;;;;;;;;;;5497820;26;20338;-85
2024/04/16 05:45:42;;;;;;;3.13;1.60;;;;;;;;;;5495907;26;20323;-85
2024/04/16 05:48:08;;;;;;;4.10;1.77;;;;;;;;;;5496534;26;20370;-85
2024/04/16 05:50:34;;;;;;;4.00;1.63;;;;;;;;;;5496640;26;20322;-84
2024/04/16 05:53:00;;;;;;;3.00;1.52;;;;;;;;;;5496264;26;20343;-84
2024/04/16 05:55:26;;;;;;;3.53;1.80;;;;;;;;;;5480573;26;20330;-84
2024/04/16 05:57:52;;;;;;;4.80;1.60;;;;;;;;;;5497935;26;20738;-84
2024/04/16 06:00:18;;;;;;;4.22;1.60;;;;;;;;;;5499441;26;20354;-84
2024/04/16 06:02:44;;;;;;;4.18;1.65;;;;;;;;;;5503236;26;20338;-85
2024/04/16 06:05:10;;;;;;;3.20;1.42;;;;;;;;;;5500371;26;20384;-84
2024/04/16 06:07:36;;;;;;;3.85;1.60;;;;;;;;;;5500980;26;20326;-84
2024/04/16 06:10:02;;;;;;;3.42;1.50;;;;;;;;;;5500152;26;20310;-84
2024/04/16 06:12:28;;;;;;;4.15;1.65;;;;;;;;;;5501258;26;20403;-84
2024/04/16 06:14:54;;;;;;;4.93;1.70;;;;;;;;;;5498216;26;20689;-85
2024/04/16 06:17:20;;;;;;;4.75;1.13;;;;;;;;;;5498331;26;20326;-85
2024/04/16 06:19:46;;;;;;;4.57;1.25;;;;;;;;;;5497993;26;20337;-84
2024/04/16 06:22:11;;;;;;;3.33;1.45;;;;;;;;;;5498105;26;20827;-85
2024/04/16 06:24:37;;;;;;;4.88;1.60;;;;;;;;;;5499201;26;20314;-85
2024/04/16 06:27:03;;;;;;;4.60;1.38;;;;;;;;;;5499375;26;20357;-85
2024/04/16 06:29:29;;;;;;;5.43;1.40;;;;;;;;;;5499808;26;20379;-84
2024/04/16 06:31:55;;;;;;;3.87;1.30;;;;;;;;;;5500578;26;20624;-85
2024/04/16 06:34:21;;;;;;;4.00;1.40;;;;;;;;;;5500940;26;20354;-85
2024/04/16 06:36:47;;;;;;;6.43;1.30;;;;;;;;;;5500571;26;20330;-85
2024/04/16 06:39:13;;;;;;;3.57;1.50;;;;;;;;;;5499877;26;20330;-85
2024/04/16 06:41:39;;;;;;;5.07;1.50;;;;;;;;;;5500613;26;20322;-85
2024/04/16 06:44:05;;;;;;;5.75;1.63;;;;;;;;;;5500848;26;20366;-84
2024/04/16 06:46:31;;;;;;;5.55;1.60;;;;;;;;;;5468636;26;20680;-84
2024/04/16 06:48:57;;;;;;;5.40;1.60;;;;;;;;;;5501325;26;20370;-85
2024/04/16 06:51:23;;;;;;;4.22;1.50;;;;;;;;;;5500517;26;20391;-85
2024/04/16 06:53:50;;;;;;;4.50;1.45;;;;;;;;;;5500671;26;20334;-85
2024/04/16 06:56:16;;;;;;;6.68;1.63;;;;;;;;;;5501508;26;20881;-85
2024/04/16 06:58:43;;;;;;;5.28;1.60;;;;;;;;;;5500556;26;20314;-84
2024/04/16 07:01:09;;;;;;;4.43;1.50;;;;;;;;;;5501284;26;21193;-85
2024/04/16 07:03:35;;;;;;;6.43;2.00;;;;;;;;;;5501310;26;20382;-85
2024/04/16 07:06:01;;;;;;;4.88;2.03;;;;;;;;;;5498327;26;20330;-86
2024/04/16 07:08:27;;;;;;;3.85;1.45;;;;;;;;;;5498869;26;20367;-85
2024/04/16 07:10:54;;;;;;;5.83;2.30;;;;;;;;;;5499170;26;20321;-85
2024/04/16 07:13:20;;;;;;;5.97;1.50;;;;;;;;;;5498691;26;20322;-85
2024/04/16 07:15:46;;;;;;;6.53;2.15;;;;;;;;;;5498416;26;20314;-84
2024/04/16 07:18:12;;;;;;;4.88;1.90;;;;;;;;;;5499420;26;20322;-84
2024/04/16 07:20:38;;;;;;;4.35;1.73;;;;;;;;;;5467109;26;20334;-85
2024/04/16 07:23:04;;;;;;;7.60;2.00;;;;;;;;;;5499348;26;20353;-84
2024/04/16 07:25:30;;;;;;;7.55;1.60;;;;;;;;;;5498479;26;20310;-85
2024/04/16 07:27:56;;;;;;;4.68;1.48;;;;;;;;;;5508416;26;20893;-85
2024/04/16 07:30:22;;;;;;;4.18;1.50;;;;;;;;;;5498398;26;20378;-84
2024/04/16 07:32:48;;;;;;;5.32;1.77;;;;;;;;;;5498826;26;20365;-84
2024/04/16 07:35:15;;;;;;;6.00;1.65;;;;;;;;;;5499512;26;20365;-84
2024/04/16 07:37:41;;;;;;;5.65;1.70;;;;;;;;;;5498600;26;20795;-84
2024/04/16 07:40:07;;;;;;;6.20;1.75;;;;;;;;;;5498531;26;20334;-84
2024/04/16 07:42:33;;;;;;;4.35;1.42;;;;;;;;;;5498855;26;20314;-85
2024/04/16 07:44:59;;;;;;;3.92;1.60;;;;;;;;;;5498257;26;20319;-85
2024/04/16 07:47:25;;;;;;;6.13;1.57;;;;;;;;;;5500713;26;20318;-84
2024/04/16 07:49:51;;;;;;;5.65;1.90;;;;;;;;;;5499813;26;20362;-84
2024/04/16 07:52:17;;;;;;;5.68;1.70;;;;;;;;;;5499803;26;20334;-84
2024/04/16 07:54:43;;;;;;;4.27;1.30;;;;;;;;;;5500159;26;20805;-85
2024/04/16 07:57:09;;;;;;;5.70;1.50;;;;;;;;;;5499672;26;20319;-85
2024/04/16 07:59:35;;;;;;;4.40;1.52;;;;;;;;;;5499929;26;20348;-84
2024/04/16 08:02:01;;;;;;;5.57;1.23;;;;;;;;;;5499097;26;20342;-85
2024/04/16 08:04:27;;;;;;;5.38;1.58;;;;;;;;;;5499707;26;20314;-84
2024/04/16 08:06:53;;;;;;;3.85;0.90;;;;;;;;;;5496052;26;20322;-84
2024/04/16 08:09:19;;;;;;;3.53;1.13;;;;;;;;;;5492984;26;20322;-84
2024/04/16 08:11:45;;;;;;;1.67;0.90;;;;;;;;;;5499084;26;20326;-83
2024/04/16 08:14:11;;;;;;;4.00;1.13;;;;;;;;;;5493656;26;20314;-84
2024/04/16 08:16:37;;;;;;;4.32;1.20;;;;;;;;;;5492925;26;20374;-84
2024/04/16 08:19:03;;;;;;;2.93;0.90;;;;;;;;;;5491752;26;20461;-84
2024/04/16 08:21:29;;;;;;;2.80;1.10;;;;;;;;;;5493527;26;20389;-84
2024/04/16 08:23:57;;;;;;;3.55;1.20;;;;;;;;;;5490647;26;20330;-84
2024/04/16 08:26:23;;;;;;;3.47;0.95;;;;;;;;;;5492819;26;20827;-84
2024/04/16 08:28:49;;;;;;;4.70;0.90;;;;;;;;;;5493670;26;20326;-84
2024/04/16 08:31:15;;;;;;;3.72;1.05;;;;;;;;;;5492883;26;20350;-84
2024/04/16 08:33:41;;;;;;;5.53;1.58;;;;;;;;;;5492421;26;20681;-84
2024/04/16 08:36:08;;;;;;;4.73;1.20;;;;;;;;;;5492548;26;20347;-84
2024/04/16 08:38:34;;;;;;;5.07;1.20;;;;;;;;;;5492456;26;20310;-84
2024/04/16 08:41:06;;;;;;;3.42;1.13;;;;;;;;;;5493129;26;20310;-84
2024/04/16 08:43:35;;;;;;;4.95;1.33;;;;;;;;;;5492651;26;20362;-84
2024/04/16 08:46:02;;;;;;;3.97;1.00;;;;;;;;;;5492761;26;20373;-84
2024/04/16 08:48:31;;;;;;;4.43;1.35;;;;;;;;;;5493308;26;20331;-84
2024/04/16 08:50:58;;;;;;;3.85;1.20;;;;;;;;;;5492589;26;20355;-84
2024/04/16 08:53:25;;;;;;;7.03;1.25;;;;;;;;;;5492442;26;20368;-84
2024/04/16 08:55:51;;;;;;;3.78;0.93;;;;;;;;;;5492367;26;20351;-84
2024/04/16 08:58:17;;;;;;;4.30;1.00;;;;;;;;;;5491738;26;20676;-84
2024/04/16 09:00:44;;;;;;;2.85;1.13;;;;;;;;;;5489103;26;20326;-84
2024/04/16 09:03:10;;;;;;;3.78;1.10;;;;;;;;;;5492215;26;20318;-84
2024/04/16 09:05:36;;;;;;;5.38;1.30;;;;;;;;;;5492709;26;20634;-84
2024/04/16 09:08:02;;;;;;;4.55;1.08;;;;;;;;;;5492113;26;20327;-84
2024/04/16 09:10:28;;;;;;;4.15;1.00;;;;;;;;;;5491520;26;20359;-84
2024/04/16 09:12:54;;;;;;;3.17;1.10;;;;;;;;;;5492434;26;20765;-83
2024/04/16 09:15:21;;;;;;;2.33;0.93;;;;;;;;;;5492044;26;20380;-83
2024/04/16 09:17:47;;;;;;;3.65;0.93;;;;;;;;;;5459533;26;20357;-83
2024/04/16 09:20:14;;;;;;;5.75;1.13;;;;;;;;;;5491416;26;20355;-83
2024/04/16 09:22:40;;;;;;;3.05;0.88;;;;;;;;;;5504456;26;20797;-83
2024/04/16 09:25:07;;;;;;;4.28;1.10;;;;;;;;;;5505081;26;20354;-84
2024/04/16 09:27:33;;;;;;;3.75;0.90;;;;;;;;;;5458433;26;20408;-83
2024/04/16 09:30:07;;;;;;;5.28;0.88;;;;;;;;;;5489737;26;20334;-84
2024/04/16 09:32:33;;;;;;;6.60;1.08;;;;;;;;;;5490905;26;20311;-83
2024/04/16 09:34:59;;;;;;;2.55;0.90;;;;;;;;;;5459011;26;20891;-83
2024/04/16 09:37:24;;;;;;;4.22;1.00;;;;;;;;;;5458402;26;20311;-82
2024/04/16 09:39:52;;;;;;;3.63;0.90;;;;;;;;;;5487425;26;20448;-82
2024/04/16 09:42:20;;;;;;;3.47;1.10;;;;;;;;;;5490428;26;20327;-83
2024/04/16 09:44:47;;;;;;;4.22;1.10;;;;;;;;;;5491009;26;20361;-83
2024/04/16 09:47:17;;;;;;;4.13;1.05;;;;;;;;;;5491030;26;20396;-83
2024/04/16 09:49:43;;;;;;;2.35;1.00;;;;;;;;;;5489644;26;20354;-83
2024/04/16 09:52:13;;;;;;;5.30;1.17;;;;;;;;;;5490287;26;21145;-83
2024/04/16 09:54:43;;;;;;;4.07;1.30;;;;;;;;;;5489871;26;20326;-84
2024/04/16 09:57:10;;;;;;;3.53;1.00;;;;;;;;;;5489928;26;20354;-83
2024/04/16 09:59:38;;;;;;;5.25;0.98;;;;;;;;;;5489552;26;20354;-84
2024/04/16 10:02:04;;;;;;;2.75;0.90;;;;;;;;;;5490564;26;20866;-83
2024/04/16 10:04:31;;;;;;;3.58;0.75;;;;;;;;;;5489748;26;20375;-83
2024/04/16 10:06:56;;;;;;;2.38;0.70;;;;;;;;;;5489374;26;20371;-83
2024/04/16 10:09:23;;;;;;;2.83;0.80;;;;;;;;;;5489195;26;20807;-83
2024/04/16 10:11:50;;;;;;;2.38;0.98;;;;;;;;;;5502298;26;20356;-82
2024/04/16 10:14:18;;;;;;;3.10;1.02;;;;;;;;;;5488860;26;20326;-81
2024/04/16 10:16:47;;;;;;;2.75;1.08;;;;;;;;;;5488383;26;20315;-82
2024/04/16 10:19:15;;;;;;;2.45;0.90;;;;;;;;;;5488347;26;20325;-82
2024/04/16 10:21:42;;;;;;;2.03;0.80;;;;;;;;;;5489570;26;20803;-83
2024/04/16 10:24:14;;;;;;;3.28;1.05;;;;;;;;;;5488457;26;20783;-82
2024/04/16 10:26:44;;;;;;;3.33;0.80;;;;;;;;;;5486099;26;20774;-80
2024/04/16 10:29:24;;;;;;;7.28;0.73;;;;;;;;;;5486808;26;20327;-81
2024/04/16 10:31:51;;;;;;;2.60;0.80;;;;;;;;;;5486762;26;20369;-81
2024/04/16 10:34:27;;;;;;;2.85;1.10;;;;;;;;;;5486678;26;20747;-80
2024/04/16 10:36:55;;;;;;;4.03;1.10;;;;;;;;;;5486771;26;20355;-81
2024/04/16 10:39:29;;;;;;;3.90;1.02;;;;;;;;;;5486944;26;20338;-80
2024/04/16 10:41:57;;;;;;;4.00;0.77;;;;;;;;;;5490817;26;20330;-80
2024/04/16 10:44:23;;;;;;;5.40;1.00;;;;;;;;;;5490698;26;20326;-81
2024/04/16 10:46:50;;;;;;;3.13;0.88;;;;;;;;;;5490952;26;20330;-82
2024/04/16 10:49:18;;;;;;;2.95;1.00;;;;;;;;;;5490426;26;20389;-81
2024/04/16 10:51:44;;;;;;;2.80;0.90;;;;;;;;;;5491033;26;20507;-81
2024/04/16 10:54:11;;;;;;;5.60;1.03;;;;;;;;;;5490882;26;20375;-81
2024/04/16 10:56:40;;;;;;;2.50;1.08;;;;;;;;;;5490403;26;20326;-81
2024/04/16 10:59:06;;;;;;;2.45;0.70;;;;;;;;;;5490414;26;20899;-82
2024/04/16 11:01:33;;;;;;;2.80;0.90;;;;;;;;;;5491138;26;20376;-81
2024/04/16 11:04:06;;;;;;;4.05;1.02;;;;;;;;;;5458622;26;20334;-81
2024/04/16 11:06:32;;;;;;;3.45;0.90;;;;;;;;;;5490491;26;20326;-81
2024/04/16 11:08:58;;;;;;;2.97;0.75;;;;;;;;;;5489531;26;20326;-81
2024/04/16 11:11:25;;;;;;;2.30;0.77;;;;;;;;;;5490670;26;20358;-81
2024/04/16 11:13:53;;;;;;;5.00;0.95;;;;;;;;;;5490432;26;20342;-82
2024/04/16 11:16:19;;;;;;;3.50;0.77;;;;;;;;;;5489908;26;20370;-82
2024/04/16 11:18:45;;;;;;;4.07;0.82;;;;;;;;;;5489628;26;20710;-83
2024/04/16 11:21:11;;;;;;;4.85;0.75;;;;;;;;;;5494667;26;20322;-81
2024/04/16 11:23:37;;;;;;;2.15;0.68;;;;;;;;;;5490368;26;20361;-81
2024/04/16 11:26:04;;;;;;;3.00;0.60;;;;;;;;;;5489443;26;20369;-81
2024/04/16 11:28:30;;;;;;;2.70;0.80;;;;;;;;;;5490507;26;20416;-81
2024/04/16 11:30:57;;;;;;;3.25;0.80;;;;;;;;;;5490432;26;20346;-81
2024/04/16 11:33:24;;;;;;;2.17;0.75;;;;;;;;;;5490572;26;20360;-81
2024/04/16 11:35:50;;;;;;;1.70;0.60;;;;;;;;;;5489991;26;20367;-81
2024/04/16 11:38:20;;;;;;;6.25;0.90;;;;;;;;;;5490228;26;20334;-81
2024/04/16 11:40:46;;;;;;;4.03;0.60;;;;;;;;;;5489825;26;20355;-81
2024/04/16 11:43:15;;;;;;;2.92;0.80;;;;;;;;;;5489985;26;20338;-82
2024/04/16 11:45:42;;;;;;;3.95;0.77;;;;;;;;;;5490358;26;20318;-80
2024/04/16 11:48:08;;;;;;;2.95;1.00;;;;;;;;;;5490307;26;20338;-80
2024/04/16 11:50:34;;;;;;;2.15;0.60;;;;;;;;;;5490167;26;20338;-80
2024/04/16 11:53:00;;;;;;;3.60;0.63;;;;;;;;;;5489540;26;20484;-81
2024/04/16 11:55:26;;;;;;;4.07;0.70;;;;;;;;;;5490882;26;20322;-81
2024/04/16 11:57:52;;;;;;;1.83;0.60;;;;;;;;;;5490112;26;20327;-81
2024/04/16 12:00:18;;;;;;;2.63;0.77;;;;;;;;;;5490181;26;20362;-81
2024/04/16 12:02:44;;;;;;;1.13;0.40;;;;;;;;;;5489403;26;20370;-81
2024/04/16 12:05:10;;;;;;;1.88;0.60;;;;;;;;;;5490266;26;20839;-82
2024/04/16 12:07:37;;;;;;;2.67;0.60;;;;;;;;;;5500676;26;20354;-82
2024/04/16 12:10:03;;;;;;;2.10;0.50;;;;;;;;;;5490473;26;20310;-81
2024/04/16 12:12:29;;;;;;;3.15;0.68;;;;;;;;;;5489708;26;20370;-82
2024/04/16 12:14:55;;;;;;;6.55;0.95;;;;;;;;;;5489298;26;20909;-82
2024/04/16 12:17:21;;;;;;;2.05;0.90;;;;;;;;;;5491210;26;20355;-82
2024/04/16 12:19:48;;;;;;;3.08;0.65;;;;;;;;;;5491977;26;20331;-81
2024/04/16 12:22:14;;;;;;;1.85;0.80;;;;;;;;;;5491800;26;20925;-86
2024/04/16 12:24:40;;;;;;;1.83;0.60;;;;;;;;;;5492810;26;20330;-79
2024/04/16 12:27:06;;;;;;;1.08;0.50;;;;;;;;;;5492858;26;20338;-79
2024/04/16 12:29:32;;;;;;;2.60;0.53;;;;;;;;;;5488209;26;20319;-78
2024/04/16 12:31:58;;;;;;;2.40;0.63;;;;;;;;;;5487986;26;20322;-78
2024/04/16 12:34:24;;;;;;;1.70;0.70;;;;;;;;;;5455874;26;20728;-77
2024/04/16 12:36:50;;;;;;;0.90;0.45;;;;;;;;;;5487544;26;20397;-78
2024/04/16 12:39:16;;;;;;;1.50;0.37;;;;;;;;;;5487194;26;20326;-77
2024/04/16 12:41:42;;;;;;;1.58;0.43;;;;;;;;;;5487450;26;20322;-77
2024/04/16 12:44:08;;;;;;;2.28;0.60;;;;;;;;;;5487192;26;20424;-78
2024/04/16 12:46:34;;;;;;;2.15;0.43;;;;;;;;;;5487806;26;20859;-79
2024/04/16 12:49:00;;;;;;;1.33;0.47;;;;;;;;;;5487595;26;20333;-78
2024/04/16 12:51:26;;;;;;;1.60;0.60;;;;;;;;;;5487591;26;20390;-78
2024/04/16 12:53:52;;;;;;;1.23;0.50;;;;;;;;;;5487361;26;20330;-78
2024/04/16 12:56:18;;;;;;;2.15;0.60;;;;;;;;;;5487093;26;20323;-78
2024/04/16 12:58:44;;;;;;;1.88;0.60;;;;;;;;;;5487441;26;20318;-77
2024/04/16 13:01:10;;;;;;;0.93;0.45;;;;;;;;;;5487482;26;20443;-78
2024/04/16 13:03:36;;;;;;;1.40;0.57;;;;;;;;;;5485064;26;20318;-77
2024/04/16 13:06:02;;;;;;;2.33;0.50;;;;;;;;;;5487228;26;20362;-78
2024/04/16 13:08:28;;;;;;;2.50;0.30;;;;;;;;;;5487021;26;20326;-79
2024/04/16 13:10:54;;;;;;;2.60;0.60;;;;;;;;;;5488786;26;20518;-79
2024/04/16 13:13:20;;;;;;;2.40;0.60;;;;;;;;;;5488903;26;20318;-79
2024/04/16 13:15:46;;;;;;;7.20;0.55;;;;;;;;;;5487614;26;20326;-77
2024/04/16 13:18:12;;;;;;;2.10;0.60;;;;;;;;;;5488372;26;20353;-79
2024/04/16 13:20:38;;;;;;;1.35;0.52;;;;;;;;;;5488577;26;20330;-79
2024/04/16 13:23:05;;;;;;;1.92;0.50;;;;;;;;;;5488350;26;20395;-79
2024/04/16 13:25:31;;;;;;;2.60;0.70;;;;;;;;;;5492844;26;20339;-79
2024/04/16 13:27:57;;;;;;;1.77;0.50;;;;;;;;;;5488665;26;20547;-79
2024/04/16 13:30:23;;;;;;;1.00;0.43;;;;;;;;;;5488376;26;20314;-79
2024/04/16 13:32:49;;;;;;;2.53;0.50;;;;;;;;;;5488429;26;20330;-77
2024/04/16 13:35:15;;;;;;;2.47;0.63;;;;;;;;;;5488657;26;20767;-78
2024/04/16 13:37:41;;;;;;;2.53;0.60;;;;;;;;;;5488102;26;20746;-78
2024/04/16 13:40:07;;;;;;;3.47;0.70;;;;;;;;;;5488417;26;20319;-79
2024/04/16 13:42:33;;;;;;;1.58;0.55;;;;;;;;;;5487835;26;20322;-79
2024/04/16 13:44:59;;;;;;;2.57;0.57;;;;;;;;;;5488892;26;20351;-79
2024/04/16 13:47:25;;;;;;;2.03;0.70;;;;;;;;;;5487688;26;20319;-78
2024/04/16 13:49:52;;;;;;;1.90;0.60;;;;;;;;;;5487688;26;20322;-79
2024/04/16 13:52:18;;;;;;;1.67;0.65;;;;;;;;;;5488027;26;20416;-78
2024/04/16 13:54:44;;;;;;;2.20;0.57;;;;;;;;;;5486985;26;20322;-78
2024/04/16 13:57:10;;;;;;;2.53;0.50;;;;;;;;;;5487533;26;20667;-78
2024/04/16 13:59:36;;;;;;;2.22;0.50;;;;;;;;;;5487392;26;20323;-80
2024/04/16 14:02:02;;;;;;;1.55;0.60;;;;;;;;;;5487824;26;20376;-78
2024/04/16 14:04:28;;;;;;;1.03;0.43;;;;;;;;;;5487122;26;20315;-78
2024/04/16 14:06:54;;;;;;;1.10;0.50;;;;;;;;;;5487152;26;20326;-79
2024/04/16 14:09:22;;;;;;;1.48;0.57;;;;;;;;;;5487478;26;20315;-78
2024/04/16 14:11:48;;;;;;;1.50;0.50;;;;;;;;;;5490056;26;20362;-78
2024/04/16 14:14:14;;;;;;;0.70;0.40;;;;;;;;;;5487820;26;20679;-78
2024/04/16 14:16:41;;;;;;;1.33;0.50;;;;;;;;;;5490708;26;20338;-78
2024/04/16 14:19:07;;;;;;;1.52;0.63;;;;;;;;;;5489238;26;20362;-78
2024/04/16 14:21:33;;;;;;;2.40;0.65;;;;;;;;;;5489700;26;20562;-78
2024/04/16 14:23:59;;;;;;;2.20;0.68;;;;;;;;;;5489373;26;20362;-78
2024/04/16 14:26:25;;;;;;;1.23;0.60;;;;;;;;;;5489481;26;20398;-78
2024/04/16 14:28:52;;;;;;;2.23;0.50;;;;;;;;;;5489531;26;20378;-78
2024/04/16 14:31:18;;;;;;;1.70;0.40;;;;;;;;;;5489383;26;20322;-78
2024/04/16 14:33:44;;;;;;;1.08;0.32;;;;;;;;;;5489894;26;20350;-78
2024/04/16 14:36:10;;;;;;;1.67;0.40;;;;;;;;;;5489790;26;20660;-78
2024/04/16 14:38:36;;;;;;;2.22;0.50;;;;;;;;;;5489967;26;20736;-78
2024/04/16 14:41:02;;;;;;;1.50;0.50;;;;;;;;;;5489385;26;20414;-78